Time;durP1;ratioP1;P1;durP2;ratioP2;P2;SDS_P1;SDS_P2;PMS_P1;PMS_P2;Temp;Humidity;BMP_temperature;BMP_pressure;BME280_temperature;BME280_humidity;BME280_pressure;Samples;Min_cycle;Max_cycle;Signal;HPM_P1;HPM_P2
2022/08/13 15:11:32;;;;;;;;;;;;;;;38.11;20.14;100128.31;4060536;27;19923;-79
2022/08/13 15:13:58;;;;;;;;;;;;;;;37.63;19.89;100125.63;4879164;29;19920;-80
2022/08/13 15:16:25;;;;;;;;;;;;;;;37.96;19.97;100131.25;4879654;29;20362;-80
2022/08/13 15:18:52;;;;;;;;;;;;;;;37.99;19.95;100116.97;4880299;29;19922;-79
2022/08/13 15:21:17;;;;;;;;;;;;;;;38.24;21.14;100111.16;4879794;29;19923;-79
2022/08/13 15:23:42;;;;;;;;;;;;;;;37.82;19.96;100114.69;4878313;29;19942;-81
2022/08/13 15:26:07;;;;;;;;;;;;;;;37.43;21.32;100091.88;4877830;29;19954;-82
2022/08/13 15:28:33;;;;;;;;;;;;;;;37.38;20.86;100105.59;4876143;29;20270;-80
2022/08/13 15:31:02;;;;;;;;;;;;;;;37.02;21.14;100114.16;4878491;29;20282;-80
2022/08/13 15:33:28;;;;;;;;;;;;;;;37.55;20.47;100107.88;4878878;29;20389;-80
2022/08/13 15:35:55;;;;;;;;;;;;;;;37.61;20.13;100116.91;4878218;29;19923;-83
2022/08/13 15:38:23;;;;;;;;;;;;;;;37.88;19.97;100106.13;4878157;29;19920;-89
2022/08/13 15:40:49;;;;;;;;;;;;;;;37.48;20.25;100110.97;4878132;29;20018;-82
2022/08/13 15:43:15;;;;;;;;;;;;;;;37.40;20.40;100108.06;4877870;29;19919;-83
2022/08/13 15:45:41;;;;;;;;;;;;;;;37.18;20.44;100111.28;4882940;29;20056;-83
2022/08/13 15:48:07;;;;;;;;;;;;;;;37.11;20.18;100106.16;4878313;29;19936;-81
2022/08/13 15:50:35;;;;;;;4.13;2.30;;;;;;;37.17;19.87;100096.00;4878571;29;19920;-82
2022/08/13 15:53:01;;;;;;;3.60;2.03;;;;;;;37.19;19.70;100099.25;4887291;29;20029;-80
2022/08/13 15:55:26;;;;;;;4.90;1.70;;;;;;;37.09;20.45;100100.16;4879085;29;20403;-79
2022/08/13 15:57:52;;;;;;;;;;;;;;;36.92;20.54;100087.69;4878598;29;19924;-81
2022/08/13 16:00:19;;;;;;;;;;;;;;;37.18;20.27;100086.66;4888909;29;19931;-82
2022/08/13 16:02:57;;;;;;;;;;;;;;;37.01;20.57;100085.16;4883070;29;19935;-81
2022/08/13 16:05:26;;;;;;;;;;;;;;;37.15;20.24;100089.97;4889071;29;20246;-81
2022/08/13 16:07:54;;;;;;;;;;;;;;;37.05;20.17;100085.41;4871878;29;19924;-81
2022/08/13 16:10:21;;;;;;;8.23;2.17;;;;;;;37.16;20.90;100080.66;4873540;29;19924;-81
2022/08/13 16:12:46;;;;;;;6.93;2.10;;;;;;;37.16;20.96;100076.00;4872289;29;20037;-80
2022/08/13 16:15:12;;;;;;;5.30;2.10;;;;;;;37.24;20.42;100075.34;4872488;29;20033;-81
2022/08/13 16:17:39;;;;;;;2.20;1.95;;;;;;;36.97;22.94;100072.31;4872196;29;20041;-82
2022/08/13 16:20:06;;;;;;;3.72;2.00;;;;;;;36.88;22.70;100072.16;4873471;29;20550;-81
2022/08/13 16:22:32;;;;;;;7.82;2.25;;;;;;;36.83;20.51;100061.25;4873484;29;20566;-80
2022/08/13 16:24:57;;;;;;;4.05;1.75;;;;;;;36.47;21.12;100059.59;4873596;29;20029;-80
2022/08/13 16:27:23;;;;;;;3.08;1.90;;;;;;;36.61;21.36;100065.22;4872586;29;20103;-80
2022/08/13 16:29:49;;;;;;;8.13;2.33;;;;;;;36.56;21.00;100059.81;4873151;29;20546;-80
2022/08/13 16:32:15;;;;;;;2.55;1.75;;;;;;;36.83;20.85;100053.03;4872719;29;20040;-81
2022/08/13 16:34:42;;;;;;;4.18;1.92;;;;;;;36.89;21.09;100049.16;4873020;29;20036;-80
2022/08/13 16:37:14;;;;;;;5.82;1.65;;;;;;;36.84;23.25;100051.94;4871651;29;20045;-81
2022/08/13 16:39:40;;;;;;;3.72;1.80;;;;;;;36.64;23.33;100048.28;4872991;29;20084;-80
2022/08/13 16:42:12;;;;;;;10.13;2.08;;;;;;;36.51;24.09;100047.00;4872856;29;20407;-80
2022/08/13 16:44:39;;;;;;;4.75;1.92;;;;;;;36.24;21.39;100050.22;4872878;29;20037;-80
2022/08/13 16:47:11;;;;;;;4.53;1.85;;;;;;;36.37;20.83;100047.94;4872611;29;20033;-81
2022/08/13 16:49:38;;;;;;;4.00;1.95;;;;;;;36.47;20.46;100045.94;4872843;29;20062;-83
2022/08/13 16:52:07;;;;;;;3.90;1.90;;;;;;;36.53;20.83;100041.25;4872550;29;20041;-82
2022/08/13 16:54:34;;;;;;;2.50;1.80;;;;;;;36.42;20.77;100042.44;4873015;29;20060;-80
2022/08/13 16:57:00;;;;;;;6.95;2.28;;;;;;;36.44;20.89;100040.25;4876893;29;20029;-80
2022/08/13 16:59:26;;;;;;;5.25;2.30;;;;;;;36.17;20.78;100041.50;4876754;29;20033;-80
2022/08/13 17:01:54;;;;;;;5.00;2.28;;;;;;;36.46;20.88;100038.03;4878872;29;20052;-80
2022/08/13 17:09:48;;;;;;;;;;;;;;;36.13;21.13;100035.75;4877909;29;20335;-80
2022/08/13 17:12:16;;;;;;;;;;;;;;;36.42;20.88;100028.78;4882856;29;19965;-79
2022/08/13 17:14:42;;;;;;;;;;;;;;;36.30;20.48;100032.69;4888175;29;19926;-79
2022/08/13 17:17:08;;;;;;;;;;;;;;;36.38;20.67;100035.88;4876537;29;19919;-80
2022/08/13 17:19:34;;;;;;;;;;;;;;;36.30;20.89;100035.41;4878172;29;19919;-80
2022/08/13 17:21:59;;;;;;;;;;;;;;;36.31;20.57;100034.28;4878254;29;19915;-80
2022/08/13 17:24:27;;;;;;;;;;;;;;;36.05;20.59;100030.09;4877831;29;19923;-80
2022/08/13 17:26:53;;;;;;;;;;;;;;;36.18;20.61;100028.66;4876890;29;19926;-80
2022/08/13 17:29:21;;;;;;;;;;;;;;;36.16;20.87;100023.50;4877066;29;19916;-80
2022/08/13 17:31:48;;;;;;;;;;;;;;;36.13;21.04;100024.84;4877861;29;19916;-80
2022/08/13 17:34:14;;;;;;;;;;;;;;;36.03;23.19;100032.28;4875222;29;19927;-80
2022/08/13 17:36:40;;;;;;;;;;;;;;;35.87;25.38;100023.38;4876811;29;19920;-80
2022/08/13 17:39:05;;;;;;;;;;;;;;;35.85;23.76;100031.03;4877273;29;19920;-80
2022/08/13 17:41:30;;;;;;;;;;;;;;;35.75;24.78;100023.72;4875050;29;19923;-79
2022/08/13 17:43:56;;;;;;;;;;;;;;;35.65;23.94;100030.00;4884570;29;19920;-80
2022/08/13 17:46:21;;;;;;;;;;;;;;;35.58;25.47;100031.41;4880706;29;19920;-81
2022/08/13 17:48:47;;;;;;;;;;;;;;;35.58;22.95;100025.94;4880852;29;20021;-79
2022/08/13 17:51:15;;;;;;;;;;;;;;;35.68;21.82;100017.72;4880535;29;19927;-79
2022/08/13 17:53:40;;;;;;;;;;;;;;;35.58;22.13;100026.75;4896275;29;19915;-79
2022/08/13 17:56:07;;;;;;;;;;;;;;;35.53;22.51;100018.59;4888187;29;19927;-79
2022/08/13 17:58:33;;;;;;;;;;;;;;;35.58;22.50;100026.75;4880798;29;19985;-79
2022/08/13 18:01:00;;;;;;;;;;;;;;;35.40;23.20;100025.47;4880568;29;19972;-79
2022/08/13 18:03:26;;;;;;;;;;;;;;;35.35;22.73;100022.78;4893747;29;19926;-79
2022/08/13 18:05:52;;;;;;;;;;;;;;;35.39;24.09;100009.38;4880651;29;20357;-79
2022/08/13 18:08:17;;;;;;;;;;;;;;;35.18;24.37;100022.28;4879010;29;19976;-80
2022/08/13 18:10:44;;;;;;;;;;;;;;;35.03;23.89;100014.91;4880005;29;20378;-80
2022/08/13 18:13:09;;;;;;;;;;;;;;;34.98;24.31;100020.41;4892252;29;19920;-79
2022/08/13 18:15:36;;;;;;;;;;;;;;;34.88;26.16;100023.97;4881188;29;19920;-79
2022/08/13 18:18:01;;;;;;;;;;;;;;;34.68;24.46;100014.72;4878565;29;20413;-79
2022/08/13 18:20:27;;;;;;;;;;;;;;;34.65;24.55;100015.22;4880099;29;19924;-80
2022/08/13 18:22:53;;;;;;;;;;;;;;;34.54;26.27;100014.41;4889656;29;19919;-79
2022/08/13 18:25:18;;;;;;;;;;;;;;;34.35;27.58;100014.13;4883575;29;19971;-79
2022/08/13 18:27:44;;;;;;;;;;;;;;;34.05;28.24;100016.81;4880357;29;19924;-80
2022/08/13 18:30:13;;;;;;;;;;;;;;;34.00;28.40;100014.06;4878840;29;19955;-80
2022/08/13 18:32:43;;;;;;;5.18;2.30;;;;;;;33.78;26.41;100012.38;4879334;29;19968;-78
2022/08/13 18:35:10;;;;;;;3.53;1.98;;;;;;;33.76;26.84;100011.81;4879192;29;20063;-79
2022/08/13 18:37:36;;;;;;;2.65;1.70;;;;;;;33.56;29.60;100018.00;4879874;29;20124;-79
2022/08/13 18:40:01;;;;;;;3.10;2.03;;;;;;;33.45;30.41;100008.13;4879613;29;20088;-79
2022/08/13 18:42:27;;;;;;;3.53;2.05;;;;;;;33.26;29.38;100010.53;4880102;29;20093;-79
2022/08/13 18:44:52;;;;;;;2.85;2.10;;;;;;;33.09;27.88;100016.94;4879945;29;20423;-79
2022/08/13 18:48:53;;;;;;;6.78;2.42;;;;;;;32.79;27.88;100012.09;5017382;27;20406;-79
2022/08/13 18:51:19;;;;;;;5.35;2.38;;;;;;;32.67;30.74;100009.56;5063406;28;20032;-80
2022/08/13 18:53:45;;;;;;;3.00;1.92;;;;;;;32.60;31.10;100008.97;5048907;28;20079;-80
2022/08/13 18:56:11;;;;;;;3.65;2.03;;;;;;;32.51;30.53;100010.50;5051826;28;20436;-80
2022/08/13 18:58:36;;;;;;;3.30;2.00;;;;;;;32.44;30.05;100005.28;5059740;28;20485;-80
2022/08/13 19:01:05;;;;;;;3.75;2.38;;;;;;;32.37;31.25;100010.94;5064971;28;20029;-80
2022/08/13 19:03:31;;;;;;;4.82;2.50;;;;;;;32.26;29.90;100020.06;5068676;28;20032;-80
2022/08/13 19:05:56;;;;;;;9.23;2.25;;;;;;;32.09;32.34;100014.75;5054099;28;20398;-81
2022/08/13 19:08:22;;;;;;;5.40;2.20;;;;;;;32.05;32.54;100029.91;5066883;28;20063;-80
2022/08/13 19:10:49;;;;;;;3.70;2.70;;;;;;;31.63;33.74;100025.06;5054732;28;20080;-81
2022/08/13 19:13:16;;;;;;;3.75;2.42;;;;;;;31.53;33.57;100024.94;5048550;28;20053;-81
2022/08/13 19:15:45;;;;;;;3.05;2.33;;;;;;;31.32;33.12;100037.38;5060072;28;20369;-81
2022/08/13 19:18:11;;;;;;;3.92;2.50;;;;;;;31.23;34.06;100024.25;5067381;28;20042;-81
2022/08/13 19:20:37;;;;;;;6.53;2.08;;;;;;;31.02;34.75;100028.56;5054027;28;20025;-81
2022/08/13 19:23:06;;;;;;;4.65;2.08;;;;;;;30.94;33.73;100033.59;5056033;28;20080;-81
2022/08/13 19:25:32;;;;;;;2.20;1.88;;;;;;;30.76;32.77;100035.44;5060984;28;20040;-81
2022/08/13 19:28:00;;;;;;;4.35;1.98;;;;;;;30.41;33.51;100036.50;5066111;28;20107;-81
2022/08/13 19:30:25;;;;;;;2.60;1.80;;;;;;;30.41;34.86;100039.22;5065331;28;20458;-82
2022/08/13 19:32:51;;;;;;;5.43;2.60;;;;;;;30.32;32.63;100029.84;5049293;28;20100;-80
2022/08/13 19:35:20;;;;;;;5.60;2.30;;;;;;;30.35;32.10;100033.94;5063578;28;20035;-81
2022/08/13 19:37:48;;;;;;;4.10;2.58;;;;;;;29.82;33.84;100039.44;5048056;28;20526;-80
2022/08/13 19:40:14;;;;;;;3.38;2.47;;;;;;;29.93;34.64;100048.59;5047953;28;20105;-81
2022/08/13 19:42:41;;;;;;;3.88;2.40;;;;;;;29.57;35.67;100041.59;5064976;28;20546;-80
2022/08/13 19:45:08;;;;;;;4.05;2.10;;;;;;;29.80;34.90;100043.44;5058671;28;20017;-80
2022/08/13 19:47:35;;;;;;;4.43;2.40;;;;;;;29.37;35.23;100048.22;5064963;28;20044;-80
2022/08/13 19:50:01;;;;;;;4.07;2.25;;;;;;;29.55;35.41;100057.25;5067679;28;20067;-80
2022/08/13 19:52:29;;;;;;;5.50;1.95;;;;;;;29.52;35.65;100053.13;5049455;28;20052;-80
2022/08/13 19:54:55;;;;;;;3.63;2.28;;;;;;;29.41;35.88;100056.69;5050102;28;20078;-80
2022/08/13 19:57:25;;;;;;;7.93;2.67;;;;;;;28.63;36.74;100054.06;5041763;28;20030;-80
2022/08/13 19:59:59;;;;;;;5.97;2.20;;;;;;;28.99;36.15;100062.16;5035730;28;20025;-78
2022/08/13 20:02:28;;;;;;;2.45;1.90;;;;;;;29.12;35.90;100053.88;5043430;28;20266;-78
2022/08/13 20:04:54;;;;;;;5.20;1.98;;;;;;;28.91;35.42;100063.38;5041018;28;20033;-77
2022/08/13 20:07:19;;;;;;;6.20;2.53;;;;;;;28.72;35.29;100061.81;5039269;28;20032;-77
2022/08/13 20:09:45;;;;;;;4.15;2.33;;;;;;;28.86;35.82;100066.75;5028535;28;20033;-77
2022/08/13 20:12:11;;;;;;;4.65;3.15;;;;;;;28.85;36.23;100058.88;5053489;28;20009;-77
2022/08/13 20:14:36;;;;;;;6.28;2.30;;;;;;;28.84;36.99;100068.88;5052860;28;20041;-77
2022/08/13 20:17:01;;;;;;;5.57;2.10;;;;;;;28.71;35.57;100071.78;5041261;28;20025;-77
2022/08/13 20:19:27;;;;;;;7.38;2.03;;;;;;;28.64;37.12;100071.06;5043173;28;20029;-77
2022/08/13 20:21:53;;;;;;;4.68;2.10;;;;;;;28.58;37.10;100080.09;5033848;28;20108;-79
2022/08/13 20:24:20;;;;;;;4.93;1.88;;;;;;;28.41;37.56;100080.69;5033798;28;20520;-79
2022/08/13 20:26:45;;;;;;;3.90;2.67;;;;;;;28.28;37.92;100075.50;5033214;28;20072;-79
2022/08/13 20:29:11;;;;;;;9.10;2.40;;;;;;;27.97;37.66;100074.66;5039379;28;20045;-79
2022/08/13 20:31:37;;;;;;;8.23;2.28;;;;;;;27.61;38.37;100078.19;5043708;28;20360;-79
2022/08/13 20:34:03;;;;;;;3.50;2.05;;;;;;;28.05;37.59;100071.66;5034561;28;20094;-79
2022/08/13 20:36:28;;;;;;;4.72;2.42;;;;;;;28.11;38.77;100079.91;5042196;28;20029;-79
2022/08/13 20:38:53;;;;;;;4.10;2.00;;;;;;;28.09;38.31;100075.53;5050265;28;20386;-79
2022/08/13 20:41:19;;;;;;;12.98;2.67;;;;;;;28.01;37.41;100078.56;5035340;28;20056;-79
2022/08/13 20:43:45;;;;;;;3.22;2.25;;;;;;;28.02;40.12;100072.13;5040924;28;20083;-79
2022/08/13 20:46:13;;;;;;;4.20;2.20;;;;;;;28.02;39.87;100082.06;5033151;28;20086;-79
2022/08/13 20:48:39;;;;;;;3.00;2.15;;;;;;;27.92;39.18;100076.38;5041491;28;20406;-79
2022/08/13 20:51:04;;;;;;;4.95;2.03;;;;;;;27.66;37.34;100076.44;5035220;28;20029;-79
2022/08/13 20:53:32;;;;;;;5.22;2.10;;;;;;;27.55;36.29;100071.81;5040315;28;20040;-79
2022/08/13 20:55:57;;;;;;;7.72;2.22;;;;;;;27.69;35.34;100067.09;5033046;28;20442;-79
2022/08/13 20:58:23;;;;;;;2.17;1.98;;;;;;;27.77;37.01;100074.06;5038859;28;20110;-79
2022/08/13 21:00:48;;;;;;;2.92;2.03;;;;;;;27.66;37.76;100068.34;5042746;28;20037;-79
2022/08/13 21:03:15;;;;;;;2.38;2.03;;;;;;;27.72;37.74;100060.41;5037414;28;20064;-79
2022/08/13 21:05:41;;;;;;;4.45;1.90;;;;;;;27.63;36.38;100068.00;5040884;28;20043;-79
2022/08/13 21:08:07;;;;;;;4.05;2.22;;;;;;;27.61;36.91;100062.81;5035671;28;20032;-79
2022/08/13 21:10:33;;;;;;;6.50;1.88;;;;;;;27.41;36.53;100057.66;5051113;28;20549;-79
2022/08/13 21:13:03;;;;;;;5.40;2.08;;;;;;;27.60;38.46;100053.06;5041876;28;20073;-79
2022/08/13 21:15:29;;;;;;;5.72;2.30;;;;;;;26.91;37.90;100061.16;5032465;28;20025;-78
2022/08/13 21:17:57;;;;;;;3.42;1.88;;;;;;;27.13;38.45;100058.09;5032033;28;20037;-78
2022/08/13 21:20:24;;;;;;;4.18;2.28;;;;;;;27.38;39.93;100070.75;5033982;28;20030;-79
2022/08/13 21:22:51;;;;;;;3.28;1.88;;;;;;;27.43;39.82;100063.63;5032184;28;20118;-79
2022/08/13 21:25:17;;;;;;;2.95;2.03;;;;;;;27.36;40.37;100059.34;5031825;28;20486;-78
2022/08/13 21:27:43;;;;;;;3.47;1.98;;;;;;;27.30;40.30;100052.97;5032328;28;20029;-79
2022/08/13 21:30:10;;;;;;;4.93;2.00;;;;;;;27.19;39.81;100056.38;5044411;28;20093;-78
2022/08/13 21:33:03;;;;;;;3.22;2.28;;;;;;;27.23;39.43;100052.19;5051023;28;20032;-79
2022/08/13 21:35:31;;;;;;;3.28;2.42;;;;;;;27.04;39.03;100048.66;5038724;28;20030;-79
2022/08/13 21:37:58;;;;;;;4.55;2.10;;;;;;;27.06;39.51;100047.38;5032286;28;20025;-79
2022/08/13 21:40:24;;;;;;;3.40;1.73;;;;;;;27.02;40.46;100045.34;5044569;28;20066;-79
2022/08/13 21:42:52;;;;;;;1.77;1.40;;;;;;;26.97;40.01;100045.19;5037141;28;20033;-79
2022/08/13 21:45:19;;;;;;;3.50;2.05;;;;;;;26.91;39.99;100041.50;5045588;28;20030;-79
2022/08/13 21:47:47;;;;;;;4.00;1.63;;;;;;;26.85;38.56;100045.88;5028186;28;20032;-78
2022/08/13 21:50:14;;;;;;;3.97;2.10;;;;;;;26.83;39.73;100047.97;5044511;28;20029;-79
2022/08/13 21:52:41;;;;;;;4.00;1.92;;;;;;;26.74;40.05;100053.84;5045810;28;20021;-79
2022/08/13 21:55:09;;;;;;;2.10;1.63;;;;;;;26.73;40.64;100058.44;5039175;28;20032;-78
2022/08/13 21:57:36;;;;;;;2.65;1.95;;;;;;;26.66;41.84;100057.66;5047996;28;20029;-78
2022/08/13 22:00:13;;;;;;;3.05;2.10;;;;;;;26.63;41.89;100050.84;5044536;28;20017;-78
2022/08/13 22:02:40;;;;;;;2.33;1.98;;;;;;;26.54;42.10;100053.97;5032034;28;20041;-78
2022/08/13 22:05:05;;;;;;;2.30;1.58;;;;;;;26.46;41.68;100061.28;5031727;28;20029;-78
2022/08/13 22:07:31;;;;;;;3.38;1.90;;;;;;;26.28;40.09;100059.34;5032098;28;20037;-78
2022/08/13 22:09:56;;;;;;;1.90;1.70;;;;;;;26.30;42.34;100054.56;5035717;28;20033;-78
2022/08/13 22:12:25;;;;;;;2.33;1.60;;;;;;;26.25;42.92;100056.25;5041412;28;20021;-78
2022/08/13 22:14:51;;;;;;;6.72;1.75;;;;;;;26.25;42.71;100062.44;5036464;28;20030;-78
2022/08/13 22:17:19;;;;;;;4.78;1.80;;;;;;;26.20;42.74;100053.34;5050787;28;20029;-78
2022/08/13 22:19:45;;;;;;;4.18;2.08;;;;;;;26.10;42.08;100054.63;5050046;28;20405;-78
2022/08/13 22:22:10;;;;;;;2.60;2.25;;;;;;;26.09;43.09;100053.00;5050544;28;20025;-78
2022/08/13 22:24:35;;;;;;;3.42;1.70;;;;;;;26.10;43.53;100053.81;5051473;28;20029;-78
2022/08/13 22:27:01;;;;;;;2.53;1.70;;;;;;;26.09;43.59;100062.94;5051587;28;20025;-78
2022/08/13 22:32:10;;;;;;;3.35;1.73;;;;;;;26.13;43.79;100058.78;5051428;28;20035;-78
2022/08/13 22:34:37;;;;;;;2.83;1.90;;;;;;;25.95;42.45;100054.13;5051519;28;20100;-78
2022/08/13 22:37:02;;;;;;;2.83;1.65;;;;;;;25.89;42.72;100063.00;5051633;28;20059;-78
2022/08/13 22:39:28;;;;;;;4.60;1.95;;;;;;;25.77;43.06;100049.41;5051208;28;20573;-78
2022/08/13 22:41:53;;;;;;;4.10;1.85;;;;;;;25.86;42.47;100055.34;5050917;28;20029;-78
2022/08/13 22:44:18;;;;;;;3.30;1.73;;;;;;;25.92;41.74;100058.03;5051673;28;20033;-78
2022/08/13 22:46:44;;;;;;;3.28;1.65;;;;;;;25.92;41.74;100055.34;5051239;28;20418;-78
2022/08/13 22:49:11;;;;;;;2.58;1.63;;;;;;;25.87;40.08;100049.78;5051551;28;20032;-78
2022/08/13 22:51:36;;;;;;;5.25;1.88;;;;;;;25.78;40.64;100053.72;5051673;28;20013;-78
2022/08/13 22:54:01;;;;;;;2.22;1.33;;;;;;;25.70;39.49;100054.78;5051516;28;20439;-78
2022/08/13 22:56:27;;;;;;;4.53;1.58;;;;;;;25.72;40.51;100051.91;5051426;28;20021;-78
2022/08/13 22:58:53;;;;;;;1.63;1.20;;;;;;;25.73;39.79;100037.41;5051381;28;20538;-78
2022/08/13 23:01:18;;;;;;;3.47;1.70;;;;;;;25.61;39.39;100039.94;5051338;28;20025;-78
2022/08/13 23:03:44;;;;;;;5.03;1.73;;;;;;;25.30;40.41;100038.78;5051426;28;20382;-79
2022/08/13 23:06:11;;;;;;;8.13;1.90;;;;;;;25.36;40.43;100041.66;5050207;28;20025;-78
2022/08/13 23:08:37;;;;;;;3.80;1.70;;;;;;;25.52;39.61;100035.84;5051269;28;20032;-78
2022/08/13 23:11:03;;;;;;;8.65;1.90;;;;;;;25.52;40.97;100038.53;5051230;28;20021;-78
2022/08/13 23:13:28;;;;;;;2.83;1.45;;;;;;;25.27;40.39;100036.50;5051205;28;20021;-78
2022/08/13 23:15:54;;;;;;;7.10;1.90;;;;;;;25.13;40.23;100032.16;5051147;28;20048;-77
2022/08/13 23:18:23;;;;;;;3.60;1.55;;;;;;;25.14;41.02;100037.31;5051231;28;20025;-77
2022/08/13 23:20:48;;;;;;;2.33;1.60;;;;;;;25.45;40.88;100029.63;5050991;28;20040;-78
2022/08/13 23:23:15;;;;;;;2.75;1.95;;;;;;;25.56;41.35;100025.50;5051352;28;20049;-77
2022/08/13 23:25:43;;;;;;;2.70;1.42;;;;;;;25.53;41.42;100022.19;5051214;28;20025;-77
2022/08/13 23:28:11;;;;;;;5.25;1.48;;;;;;;25.55;41.41;100019.25;5051072;28;20032;-78
2022/08/13 23:30:37;;;;;;;2.22;1.60;;;;;;;25.48;41.60;100021.16;5051095;28;20029;-79
2022/08/13 23:33:04;;;;;;;7.43;2.55;;;;;;;25.48;42.57;100013.91;5050942;28;20035;-79
2022/08/13 23:35:30;;;;;;;3.03;1.45;;;;;;;25.43;40.72;100015.59;5054620;28;20029;-79
2022/08/13 23:37:56;;;;;;;1.73;1.50;;;;;;;25.44;40.40;100012.69;5054880;28;20025;-79
2022/08/13 23:40:23;;;;;;;6.22;1.92;;;;;;;25.42;41.17;100013.94;5054736;28;20070;-78
2022/08/13 23:42:49;;;;;;;2.90;1.42;;;;;;;25.45;42.31;100018.88;5054758;28;20108;-78
2022/08/13 23:45:14;;;;;;;3.97;1.38;;;;;;;25.41;42.23;100013.09;5054545;28;20120;-76
2022/08/13 23:47:40;;;;;;;2.72;1.88;;;;;;;25.39;41.55;100009.81;5054565;28;20509;-78
2022/08/13 23:50:05;;;;;;;5.60;1.88;;;;;;;25.40;41.34;100002.59;5054593;28;20112;-77
2022/08/13 23:52:31;;;;;;;4.75;1.60;;;;;;;25.40;41.38;100005.28;5054596;28;20029;-77
2022/08/13 23:54:57;;;;;;;3.95;1.45;;;;;;;25.40;42.53;100005.28;5054576;28;20127;-78
2022/08/13 23:57:22;;;;;;;1.60;1.40;;;;;;;25.42;38.99;99998.66;5054240;28;20021;-77
2022/08/13 23:59:48;;;;;;;1.80;1.40;;;;;;;25.39;39.98;99999.06;5054229;28;20032;-77
